Time;durP1;ratioP1;P1;durP2;ratioP2;P2;SDS_P1;SDS_P2;PMS_P1;PMS_P2;Temp;Humidity;BMP_temperature;BMP_pressure;BME280_temperature;BME280_humidity;BME280_pressure;Samples;Min_cycle;Max_cycle;Signal;HPM_P1;HPM_P2
2022/09/03 00:00:24;;;;;;;2.23;1.60;;;20.20;47.70;;;;;;5059193;28;20176;-92
2022/09/03 00:03:21;;;;;;;1.80;1.50;;;20.20;47.90;;;;;;5057345;28;20617;-93
2022/09/03 00:06:09;;;;;;;1.87;1.70;;;20.20;48.10;;;;;;5057576;28;20584;-92
2022/09/03 00:08:58;;;;;;;2.87;1.53;;;20.30;48.00;;;;;;5057991;28;20175;-92
2022/09/03 00:11:44;;;;;;;2.60;1.67;;;20.30;47.60;;;;;;5059056;28;20187;-92
2022/09/03 00:14:17;;;;;;;3.90;1.87;;;20.20;47.70;;;;;;5053610;28;20471;-92
2022/09/03 00:16:53;;;;;;;1.53;1.43;;;20.20;48.00;;;;;;5058437;28;20172;-91
2022/09/03 00:19:25;;;;;;;5.00;1.53;;;20.30;47.80;;;;;;5075899;28;20172;-91
2022/09/03 00:21:57;;;;;;;1.57;1.37;;;20.30;47.60;;;;;;5057807;28;20580;-91
2022/09/03 00:24:31;;;;;;;1.70;1.43;;;20.30;48.00;;;;;;5058129;28;20174;-91
2022/09/03 00:27:02;;;;;;;3.57;1.60;;;20.20;47.70;;;;;;5056962;28;20171;-91
2022/09/03 00:29:36;;;;;;;4.20;1.60;;;20.10;47.80;;;;;;5057071;28;20529;-91
2022/09/03 00:32:12;;;;;;;2.67;1.80;;;20.30;47.80;;;;;;5057730;28;20248;-91
2022/09/03 00:34:47;;;;;;;2.03;1.50;;;20.10;47.80;;;;;;5058168;28;20567;-91
2022/09/03 00:37:13;;;;;;;1.77;1.27;;;20.20;48.20;;;;;;5059163;28;20170;-91
2022/09/03 00:39:38;;;;;;;1.50;1.40;;;20.20;47.80;;;;;;5059848;28;20185;-91
2022/09/03 00:42:42;;;;;;;4.70;1.40;;;20.30;48.10;;;;;;5059750;28;20293;-90
2022/09/03 00:45:14;;;;;;;2.70;1.40;;;20.30;47.50;;;;;;5060217;28;20726;-91
2022/09/03 00:47:45;;;;;;;1.63;1.30;;;20.40;47.80;;;;;;5059264;28;20430;-91
2022/09/03 00:50:11;;;;;;;;;;;20.20;47.60;;;;;;5060124;28;20020;-90
2022/09/03 00:52:44;;;;;;;;;;;20.10;48.20;;;;;;5076270;28;19919;-90
2022/09/03 00:55:25;;;;;;;;;;;20.20;48.20;;;;;;5058814;28;20317;-90
2022/09/03 00:57:55;;;;;;;;;;;20.20;47.70;;;;;;5056953;28;19904;-89
2022/09/03 01:00:21;;;;;;;;;;;20.20;48.00;;;;;;5058654;28;19935;-90
2022/09/03 01:03:06;;;;;;;;;;;20.20;47.90;;;;;;5058898;28;19915;-90
2022/09/03 01:05:35;;;;;;;;;;;20.20;47.80;;;;;;5059444;28;19912;-89
2022/09/03 01:08:04;;;;;;;;;;;20.20;47.80;;;;;;5074383;28;19914;-89
2022/09/03 01:10:42;;;;;;;;;;;20.20;48.00;;;;;;5058483;28;20243;-90
2022/09/03 01:13:16;;;;;;;;;;;20.30;47.90;;;;;;5075930;28;19954;-90
2022/09/03 01:16:01;;;;;;;;;;;20.40;47.90;;;;;;5060694;28;19905;-90
2022/09/03 01:18:43;;;;;;;;;;;20.40;48.00;;;;;;5058783;28;19904;-90
2022/09/03 01:21:12;;;;;;;;;;;20.40;47.70;;;;;;5057720;28;19908;-89
2022/09/03 01:23:44;;;;;;;;;;;20.30;47.90;;;;;;5054751;28;20078;-91
2022/09/03 01:26:22;;;;;;;;;;;20.30;48.10;;;;;;5072509;28;19911;-90
2022/09/03 01:28:55;;;;;;;;;;;20.30;48.10;;;;;;5054397;28;19905;-91
2022/09/03 01:31:41;;;;;;;;;;;20.30;47.70;;;;;;5069864;28;19915;-90
2022/09/03 01:34:06;;;;;;;;;;;20.20;47.70;;;;;;5070286;28;20103;-90
2022/09/03 01:36:36;;;;;;;;;;;20.20;48.20;;;;;;5052825;28;19916;-90
2022/09/03 01:39:04;;;;;;;;;;;20.10;47.80;;;;;;5053441;28;19904;-90
2022/09/03 01:42:17;;;;;;;;;;;20.10;48.20;;;;;;5054852;28;20266;-90
2022/09/03 01:45:05;;;;;;;;;;;20.10;48.30;;;;;;5056057;28;20285;-90
2022/09/03 01:47:36;;;;;;;;;;;20.20;48.10;;;;;;5057367;28;19904;-90
2022/09/03 01:50:05;;;;;;;;;;;20.30;48.10;;;;;;5057038;28;19905;-91
2022/09/03 01:52:49;;;;;;;;;;;20.40;48.10;;;;;;5057447;28;19995;-90
2022/09/03 01:55:15;;;;;;;;;;;20.40;48.10;;;;;;5058398;28;19908;-90
2022/09/03 01:57:59;;;;;;;;;;;20.50;48.00;;;;;;5059024;28;19909;-89
2022/09/03 02:00:26;;;;;;;;;;;20.60;48.00;;;;;;5058942;28;20228;-89
2022/09/03 02:02:52;;;;;;;;;;;20.70;48.00;;;;;;5058416;28;19912;-90
2022/09/03 02:05:28;;;;;;;;;;;20.70;47.80;;;;;;5059005;28;19916;-90
2022/09/03 02:08:00;;;;;;;;;;;20.70;48.00;;;;;;5058331;28;20217;-89
2022/09/03 02:10:32;;;;;;;;;;;20.70;47.80;;;;;;5058414;28;19995;-89
2022/09/03 02:13:00;;;;;;;;;;;20.70;47.70;;;;;;5059725;28;19911;-89
2022/09/03 02:15:26;;;;;;;;;;;20.80;48.00;;;;;;5059570;28;19908;-90
2022/09/03 02:17:55;;;;;;;;;;;20.80;47.90;;;;;;5058641;28;19927;-89
2022/09/03 02:20:22;;;;;;;;;;;20.80;48.00;;;;;;5075505;28;20228;-89
2022/09/03 02:22:48;;;;;;;;;;;20.90;48.00;;;;;;5058378;28;19912;-89
2022/09/03 02:25:14;;;;;;;;;;;20.90;48.00;;;;;;5058419;28;19995;-90
2022/09/03 02:27:40;;;;;;;;;;;20.90;48.10;;;;;;5058060;28;19950;-89
2022/09/03 02:30:07;;;;;;;;;;;20.90;48.00;;;;;;5058568;28;19943;-91
2022/09/03 02:32:32;;;;;;;;;;;21.00;48.00;;;;;;5057446;28;19904;-91
2022/09/03 02:34:58;;;;;;;;;;;20.90;48.00;;;;;;5057532;28;19938;-90
2022/09/03 02:37:24;;;;;;;;;;;20.90;48.10;;;;;;5057737;28;19908;-90
2022/09/03 02:39:50;;;;;;;;;;;21.00;48.10;;;;;;5057063;28;19974;-91
2022/09/03 02:42:17;;;;;;;;;;;21.00;48.20;;;;;;5056768;28;20293;-91
2022/09/03 02:44:56;;;;;;;;;;;21.00;48.20;;;;;;5057010;28;19905;-91
2022/09/03 02:47:22;;;;;;;;;;;21.00;48.20;;;;;;5056544;28;19905;-91
2022/09/03 02:49:48;;;;;;;;;;;21.00;48.40;;;;;;5057591;28;19989;-91
2022/09/03 02:52:13;;;;;;;;;;;21.10;48.40;;;;;;5057806;28;19905;-91
2022/09/03 02:54:39;;;;;;;;;;;21.10;48.40;;;;;;5058081;28;19904;-91
2022/09/03 02:57:06;;;;;;;;;;;21.00;48.40;;;;;;5059072;28;19915;-91
2022/09/03 02:59:31;;;;;;;;;;;21.10;48.50;;;;;;5058706;28;20270;-91
2022/09/03 03:01:57;;;;;;;;;;;21.10;48.50;;;;;;5058857;28;19960;-91
2022/09/03 03:04:23;;;;;;;;;;;21.10;48.50;;;;;;5058083;28;19986;-91
2022/09/03 03:06:52;;;;;;;;;;;21.10;48.60;;;;;;5057193;28;19964;-91
2022/09/03 03:09:20;;;;;;;;;;;21.10;48.60;;;;;;5055998;28;20175;-91
2022/09/03 03:11:47;;;;;;;;;;;21.10;48.60;;;;;;5057431;28;19904;-91
2022/09/03 03:14:14;;;;;;;;;;;21.10;48.60;;;;;;5057499;28;19905;-91
2022/09/03 03:16:39;;;;;;;;;;;21.10;48.70;;;;;;5057914;28;19958;-91
2022/09/03 03:19:05;;;;;;;;;;;21.00;48.70;;;;;;5057519;28;19905;-91
2022/09/03 03:21:30;;;;;;;;;;;21.00;48.80;;;;;;5057007;28;19909;-91
2022/09/03 03:23:56;;;;;;;;;;;21.00;48.80;;;;;;5056805;28;19904;-91
2022/09/03 03:26:23;;;;;;;;;;;21.00;48.90;;;;;;5056135;28;20281;-91
2022/09/03 03:28:49;;;;;;;;;;;21.00;48.90;;;;;;5056421;28;19915;-91
2022/09/03 03:31:16;;;;;;;;;;;21.00;48.90;;;;;;5057412;28;20174;-91
2022/09/03 03:33:42;;;;;;;;;;;21.00;48.90;;;;;;5059865;28;19904;-91
2022/09/03 03:36:08;;;;;;;;;;;21.00;49.00;;;;;;5059761;28;19915;-91
2022/09/03 03:38:34;;;;;;;;;;;21.00;49.00;;;;;;5078563;28;20253;-91
2022/09/03 03:41:05;;;;;;;;;;;21.00;49.10;;;;;;5061388;28;20016;-90
2022/09/03 03:43:31;;;;;;;;;;;21.00;49.00;;;;;;5059875;28;19908;-91
2022/09/03 03:45:57;;;;;;;;;;;21.00;49.10;;;;;;5059947;28;19904;-91
2022/09/03 03:48:23;;;;;;;;;;;21.00;49.10;;;;;;5059253;28;19911;-91
2022/09/03 03:50:49;;;;;;;;;;;21.00;49.10;;;;;;5059781;28;20026;-91
2022/09/03 03:53:15;;;;;;;;;;;21.00;49.10;;;;;;5059898;28;19995;-91
2022/09/03 03:55:41;;;;;;;;;;;21.00;49.20;;;;;;5059998;28;20194;-91
2022/09/03 03:58:06;;;;;;;;;;;21.00;49.10;;;;;;5077821;28;19951;-91
2022/09/03 04:00:35;;;;;;;;;;;20.90;49.10;;;;;;5059177;28;19904;-91
2022/09/03 04:03:01;;;;;;;;;;;20.90;49.10;;;;;;5075902;28;20006;-91
2022/09/03 04:05:27;;;;;;;;;;;20.90;49.20;;;;;;5060338;28;19987;-91
2022/09/03 04:07:59;;;;;;;;;;;20.90;49.20;;;;;;5077358;28;19989;-91
2022/09/03 04:10:25;;;;;;;;;;;20.90;49.20;;;;;;5060257;28;19938;-91
2022/09/03 04:12:53;;;;;;;;;;;20.90;49.20;;;;;;5059096;28;19904;-91
2022/09/03 04:15:18;;;;;;;;;;;20.90;49.30;;;;;;5076083;28;19910;-90
2022/09/03 04:17:44;;;;;;;;;;;20.90;49.30;;;;;;5075686;28;19905;-91
2022/09/03 04:20:09;;;;;;;;;;;20.90;49.30;;;;;;5075767;28;19904;-91
2022/09/03 04:22:35;;;;;;;;;;;20.90;49.40;;;;;;5058287;28;19912;-90
2022/09/03 04:25:00;;;;;;;;;;;20.90;49.50;;;;;;5057404;28;20296;-91
2022/09/03 04:27:26;;;;;;;;;;;20.90;49.50;;;;;;5057924;28;19919;-91
2022/09/03 04:29:51;;;;;;;;;;;20.90;49.70;;;;;;5057367;28;19916;-90
2022/09/03 04:35:01;;;;;;;;;;;20.90;49.90;;;;;;5075605;28;19996;-90
2022/09/03 04:37:26;;;;;;;;;;;20.90;50.00;;;;;;5058338;28;20295;-91
2022/09/03 04:39:53;;;;;;;;;;;21.00;50.10;;;;;;5056691;28;20443;-91
2022/09/03 04:42:18;;;;;;;;;;;21.00;50.30;;;;;;5055659;28;20159;-90
2022/09/03 04:44:44;;;;;;;;;;;21.00;50.40;;;;;;5055570;28;20282;-90
2022/09/03 04:47:09;;;;;;;;;;;21.00;50.40;;;;;;5055204;28;20289;-90
2022/09/03 04:49:35;;;;;;;;;;;21.00;50.50;;;;;;5054523;28;20117;-91
2022/09/03 04:52:02;;;;;;;;;;;21.00;50.40;;;;;;5070853;28;20258;-91
2022/09/03 04:54:27;;;;;;;;;;;21.00;50.50;;;;;;5071382;28;20270;-90
2022/09/03 04:56:53;;;;;;;;;;;21.00;50.50;;;;;;5055947;28;19935;-90
2022/09/03 04:59:19;;;;;;;;;;;21.00;50.50;;;;;;5058025;28;19919;-90
2022/09/03 05:01:44;;;;;;;;;;;21.00;50.50;;;;;;5058590;28;19908;-91
2022/09/03 05:04:10;;;;;;;;;;;21.00;50.50;;;;;;5057767;28;19914;-91
2022/09/03 05:06:36;;;;;;;;;;;21.10;50.50;;;;;;5057682;28;20290;-90
2022/09/03 05:09:02;;;;;;;;;;;21.00;50.50;;;;;;5056036;28;20101;-91
2022/09/03 05:11:28;;;;;;;;;;;21.10;50.60;;;;;;5057808;28;20041;-90
2022/09/03 05:13:55;;;;;;;;;;;21.10;50.60;;;;;;5056905;28;20201;-90
2022/09/03 05:16:21;;;;;;;;;;;21.10;50.60;;;;;;5057068;28;19919;-91
2022/09/03 05:18:47;;;;;;;;;;;21.10;50.60;;;;;;5056936;28;19904;-91
2022/09/03 05:21:14;;;;;;;;;;;21.10;50.70;;;;;;5056952;28;19904;-90
2022/09/03 05:23:41;;;;;;;;;;;21.10;50.60;;;;;;5058435;28;20266;-92
2022/09/03 05:26:08;;;;;;;;;;;21.10;50.60;;;;;;5058142;28;19905;-93
2022/09/03 05:28:35;;;;;;;;;;;21.10;50.70;;;;;;5057222;28;20002;-92
2022/09/03 05:31:05;;;;;;;;;;;21.10;50.60;;;;;;5057171;28;20313;-92
2022/09/03 05:33:34;;;;;;;;;;;21.10;50.60;;;;;;5055622;28;19939;-92
2022/09/03 05:36:04;;;;;;;;;;;21.10;50.60;;;;;;5057462;28;19915;-91
2022/09/03 05:38:29;;;;;;;;;;;21.20;50.60;;;;;;5056744;28;19939;-92
2022/09/03 05:40:59;;;;;;;;;;;21.20;50.30;;;;;;5055898;28;20190;-92
2022/09/03 05:43:25;;;;;;;;;;;21.40;50.30;;;;;;5056979;28;19917;-92
2022/09/03 05:45:55;;;;;;;;;;;21.50;50.20;;;;;;5056720;28;20333;-92
2022/09/03 05:48:21;;;;;;;;;;;21.60;50.00;;;;;;5056124;28;19904;-93
2022/09/03 05:50:48;;;;;;;;;;;21.80;49.90;;;;;;5070689;28;20197;-92
2022/09/03 05:53:16;;;;;;;;;;;21.90;49.80;;;;;;5056613;28;19919;-92
2022/09/03 05:55:41;;;;;;;;;;;22.00;49.50;;;;;;5055713;28;19913;-92
2022/09/03 05:58:07;;;;;;;;;;;22.10;49.40;;;;;;5056273;28;19905;-93
2022/09/03 06:00:32;;;;;;;;;;;22.20;49.30;;;;;;5054853;28;19904;-91
2022/09/03 06:02:58;;;;;;;;;;;22.40;49.20;;;;;;5072461;28;20193;-92
2022/09/03 06:05:24;;;;;;;;;;;22.50;48.90;;;;;;5054958;28;19981;-92
2022/09/03 06:07:50;;;;;;;;;;;22.70;48.70;;;;;;5054583;28;20270;-90
2022/09/03 06:10:16;;;;;;;;;;;22.90;48.50;;;;;;5055063;28;19912;-90
2022/09/03 06:12:48;;;;;;;;;;;23.10;48.30;;;;;;5052830;28;19919;-90
2022/09/03 06:15:15;;;;;;;;;;;23.50;48.40;;;;;;5054387;28;19964;-90
2022/09/03 06:17:41;;;;;;;;;;;23.90;47.50;;;;;;5055127;28;19988;-90
2022/09/03 06:20:07;;;;;;;;;;;24.30;47.00;;;;;;5054999;28;19904;-90
2022/09/03 06:22:32;;;;;;;;;;;24.80;46.50;;;;;;5054984;28;19927;-90
2022/09/03 06:24:58;;;;;;;;;;;25.30;45.90;;;;;;5054785;28;20082;-90
2022/09/03 06:27:24;;;;;;;;;;;25.80;45.40;;;;;;5055119;28;20293;-89
2022/09/03 06:29:49;;;;;;;;;;;26.20;44.80;;;;;;5053612;28;19904;-90
2022/09/03 06:32:15;;;;;;;;;;;26.50;44.50;;;;;;5054084;28;19904;-90
2022/09/03 06:34:41;;;;;;;;;;;26.80;44.20;;;;;;5052959;28;20352;-90
2022/09/03 06:37:07;;;;;;;;;;;27.00;44.00;;;;;;5070045;28;20086;-90
2022/09/03 06:39:32;;;;;;;;;;;27.20;43.90;;;;;;5072074;28;20201;-90
2022/09/03 06:41:58;;;;;;;;;;;27.40;43.70;;;;;;5054701;28;20022;-90
2022/09/03 06:44:23;;;;;;;;;;;27.60;43.50;;;;;;5054353;28;20205;-92
2022/09/03 06:46:52;;;;;;;;;;;27.90;43.20;;;;;;5052689;28;19912;-92
2022/09/03 06:49:18;;;;;;;;;;;28.10;43.00;;;;;;5052039;28;19904;-92
2022/09/03 06:51:44;;;;;;;;;;;28.40;42.70;;;;;;5051836;28;19904;-90
2022/09/03 06:54:10;;;;;;;;;;;28.60;42.40;;;;;;5054069;28;19912;-93
2022/09/03 06:56:37;;;;;;;;;;;28.80;42.30;;;;;;5053369;28;19908;-92
2022/09/03 06:59:05;;;;;;;;;;;29.00;42.10;;;;;;5052957;28;20323;-92
2022/09/03 07:01:31;;;;;;;;;;;29.20;41.80;;;;;;5052514;28;20130;-92
2022/09/03 07:04:02;;;;;;;;;;;29.50;41.60;;;;;;5054049;28;19904;-92
2022/09/03 07:06:29;;;;;;;;;;;29.60;41.40;;;;;;5054616;28;20052;-92
2022/09/03 07:08:56;;;;;;;;;;;29.70;41.20;;;;;;5074065;28;19904;-92
2022/09/03 07:11:25;;;;;;;;;;;30.00;41.00;;;;;;5057626;28;20004;-92
2022/09/03 07:13:50;;;;;;;;;;;30.20;40.80;;;;;;5057923;28;19912;-92
2022/09/03 07:16:20;;;;;;;;;;;30.30;40.60;;;;;;5057868;28;19904;-91
2022/09/03 07:18:46;;;;;;;;;;;30.50;40.50;;;;;;5075027;28;19915;-91
2022/09/03 07:21:13;;;;;;;;;;;30.70;40.30;;;;;;5074008;28;19999;-91
2022/09/03 07:23:40;;;;;;;1.65;1.55;;;30.90;40.10;;;;;;5056153;28;20019;-91
2022/09/03 07:26:09;;;;;;;3.35;1.70;;;31.10;39.90;;;;;;5056654;28;20769;-91
2022/09/03 07:28:36;;;;;;;3.45;1.67;;;31.30;39.80;;;;;;5055471;28;20172;-91
2022/09/03 07:31:30;;;;;;;2.25;1.50;;;31.50;39.60;;;;;;5073772;28;20203;-91
2022/09/03 07:34:08;;;;;;;1.73;1.50;;;31.60;39.50;;;;;;5071884;28;20251;-91
2022/09/03 07:36:45;;;;;;;1.90;1.60;;;31.90;39.30;;;;;;5055820;28;20179;-91
2022/09/03 07:39:12;;;;;;;2.55;1.65;;;32.10;39.10;;;;;;5055539;28;20209;-91
2022/09/03 07:41:44;;;;;;;1.90;1.65;;;32.30;39.00;;;;;;5057182;28;20203;-91
2022/09/03 07:44:18;;;;;;;1.95;1.52;;;32.30;38.90;;;;;;5055356;28;20207;-91
2022/09/03 07:46:44;;;;;;;2.00;1.80;;;31.30;39.00;;;;;;5051629;28;20677;-91
2022/09/03 07:49:10;;;;;;;2.30;1.90;;;31.50;39.50;;;;;;5053121;28;20184;-91
2022/09/03 07:51:38;;;;;;;2.65;1.50;;;31.70;39.10;;;;;;5072362;28;20405;-91
2022/09/03 07:54:08;;;;;;;2.72;1.70;;;30.60;39.50;;;;;;5053019;28;20179;-91
2022/09/03 07:56:35;;;;;;;1.98;1.75;;;30.90;39.90;;;;;;5052865;28;20172;-91
2022/09/03 07:59:01;;;;;;;2.28;1.65;;;31.50;39.60;;;;;;5071389;28;20565;-91
2022/09/03 08:01:30;;;;;;;1.80;1.70;;;32.00;39.20;;;;;;5054837;28;20303;-92
2022/09/03 08:03:55;;;;;;;1.77;1.65;;;32.40;38.90;;;;;;5071342;28;20262;-91
2022/09/03 08:06:24;;;;;;;2.90;1.70;;;32.70;38.70;;;;;;5054011;28;20293;-92
2022/09/03 08:08:57;;;;;;;2.20;1.73;;;32.80;38.50;;;;;;5054578;28;20176;-91
2022/09/03 08:11:23;;;;;;;1.67;1.58;;;33.10;38.50;;;;;;5052998;28;20444;-91
2022/09/03 08:14:01;;;;;;;1.77;1.67;;;33.30;38.30;;;;;;5069156;28;20233;-91
2022/09/03 08:16:33;;;;;;;2.35;1.88;;;33.50;38.20;;;;;;5050868;28;20178;-91
2022/09/03 08:18:59;;;;;;;5.10;1.77;;;33.70;38.10;;;;;;5066655;28;20179;-91
2022/09/03 08:21:26;;;;;;;2.72;1.90;;;33.80;38.00;;;;;;5052682;28;20175;-91
2022/09/03 08:23:55;;;;;;;1.90;1.80;;;34.00;37.90;;;;;;5052858;28;20193;-92
2022/09/03 08:26:21;;;;;;;2.03;1.70;;;34.20;37.90;;;;;;5051085;28;20168;-91
2022/09/03 08:28:48;;;;;;;3.60;2.00;;;33.40;38.00;;;;;;5053743;28;20344;-92
2022/09/03 08:31:17;;;;;;;3.05;1.80;;;33.30;38.60;;;;;;5051786;28;20489;-91
2022/09/03 08:33:49;;;;;;;2.25;1.90;;;33.70;38.30;;;;;;5052757;28;20400;-91
2022/09/03 08:36:24;;;;;;;6.68;1.83;;;34.10;37.80;;;;;;5052142;28;20199;-91
2022/09/03 08:38:54;;;;;;;2.70;1.85;;;34.30;37.70;;;;;;5052436;28;20167;-91
2022/09/03 08:41:28;;;;;;;7.10;1.92;;;34.30;37.70;;;;;;5052633;28;20172;-92
2022/09/03 08:44:15;;;;;;;5.07;1.75;;;34.30;37.30;;;;;;5053077;28;20176;-92
2022/09/03 08:46:59;;;;;;;1.80;1.70;;;34.40;37.40;;;;;;5053009;28;20178;-92
2022/09/03 08:49:42;;;;;;;2.03;1.50;;;34.50;37.40;;;;;;5051486;28;20263;-92
2022/09/03 08:52:37;;;;;;;1.85;1.70;;;34.50;37.50;;;;;;5053572;28;20276;-92
2022/09/03 08:55:18;;;;;;;2.15;1.83;;;34.50;37.20;;;;;;5049734;28;20176;-92
2022/09/03 08:58:10;;;;;;;2.53;1.70;;;34.50;37.20;;;;;;5051651;28;20600;-92
2022/09/03 09:00:45;;;;;;;3.38;1.85;;;34.50;37.30;;;;;;5051445;28;20191;-92
2022/09/03 09:03:16;;;;;;;4.20;1.70;;;34.60;37.20;;;;;;5051961;28;20209;-92
2022/09/03 09:05:59;;;;;;;2.70;1.70;;;34.60;37.80;;;;;;5050680;28;20186;-92
2022/09/03 09:08:34;;;;;;;5.70;2.10;;;34.70;37.40;;;;;;5048913;28;20203;-91
2022/09/03 09:11:16;;;;;;;2.00;1.75;;;34.80;37.10;;;;;;5051483;28;20481;-91
2022/09/03 09:13:59;;;;;;;4.30;2.00;;;35.00;37.10;;;;;;5050072;28;20203;-92
2022/09/03 09:16:31;;;;;;;5.30;1.90;;;35.00;36.70;;;;;;5049083;28;20486;-92
2022/09/03 09:19:12;;;;;;;4.15;1.80;;;35.00;36.70;;;;;;5049325;28;20176;-91
2022/09/03 09:21:45;;;;;;;;;;;35.00;36.70;;;;;;5049576;28;20025;-91
2022/09/03 09:24:25;;;;;;;;;;;34.70;37.30;;;;;;5047692;28;19970;-91
2022/09/03 09:27:02;;;;;;;;;;;34.20;37.90;;;;;;5066639;28;20201;-92
2022/09/03 09:29:30;;;;;;;;;;;34.10;38.20;;;;;;5066755;28;19904;-91
2022/09/03 09:31:56;;;;;;;;;;;34.00;38.20;;;;;;5048444;28;19909;-92
2022/09/03 09:34:21;;;;;;;;;;;34.10;38.10;;;;;;5050176;28;19961;-92
2022/09/03 09:36:49;;;;;;;;;;;33.90;37.80;;;;;;5049163;28;19999;-92
2022/09/03 09:39:15;;;;;;;;;;;34.00;38.00;;;;;;5050406;28;20120;-91
2022/09/03 09:41:41;;;;;;;;;;;34.00;37.50;;;;;;5048703;28;19916;-92
2022/09/03 09:44:07;;;;;;;;;;;34.20;37.40;;;;;;5049255;28;20060;-92
2022/09/03 09:46:37;;;;;;;;;;;33.90;38.00;;;;;;5047416;28;20068;-93
2022/09/03 09:49:07;;;;;;;;;;;33.60;38.00;;;;;;5046626;28;19912;-93
2022/09/03 09:51:33;;;;;;;;;;;33.30;38.10;;;;;;5064815;28;19904;-92
2022/09/03 09:54:09;;;;;;;;;;;33.20;37.70;;;;;;5049647;28;20025;-92
2022/09/03 09:56:35;;;;;;;;;;;32.50;37.80;;;;;;5047744;28;19916;-92
2022/09/03 09:59:05;;;;;;;;;;;31.80;38.20;;;;;;5049542;28;20386;-92
2022/09/03 10:01:31;;;;;;;;;;;31.40;38.70;;;;;;5050448;28;19912;-91
2022/09/03 10:04:21;;;;;;;;;;;30.80;39.40;;;;;;5050263;28;19969;-92
2022/09/03 10:06:52;;;;;;;;;;;30.20;39.70;;;;;;5057098;28;20349;-91
2022/09/03 10:09:19;;;;;;;;;;;30.20;39.50;;;;;;5049508;28;19912;-92
2022/09/03 10:11:49;;;;;;;;;;;30.00;40.00;;;;;;5048227;28;20003;-92
2022/09/03 10:14:19;;;;;;;;;;;29.80;40.30;;;;;;5046011;28;19904;-92
2022/09/03 10:16:47;;;;;;;;;;;29.50;40.50;;;;;;5063463;28;20397;-92
2022/09/03 10:19:18;;;;;;;;;;;29.30;40.90;;;;;;5044536;28;19904;-92
2022/09/03 10:21:50;;;;;;;;;;;29.20;40.90;;;;;;5047080;28;19908;-91
2022/09/03 10:24:15;;;;;;;;;;;29.20;40.20;;;;;;5063030;28;19905;-91
2022/09/03 10:26:43;;;;;;;;;;;29.30;40.70;;;;;;5044479;28;19911;-91
2022/09/03 10:29:09;;;;;;;;;;;29.00;41.20;;;;;;5046155;28;20282;-91
2022/09/03 10:31:35;;;;;;;;;;;28.90;41.40;;;;;;5046829;28;20040;-91
2022/09/03 10:34:04;;;;;;;;;;;28.80;41.60;;;;;;5044360;28;19904;-91
2022/09/03 10:36:29;;;;;;;;;;;28.60;41.80;;;;;;5046221;28;19995;-91
2022/09/03 10:39:03;;;;;;;;;;;28.60;41.40;;;;;;5048385;28;20289;-91
2022/09/03 10:41:54;;;;;;;;;;;28.40;42.00;;;;;;5048815;28;19987;-92
2022/09/03 10:44:31;;;;;;;;;;;28.20;42.30;;;;;;5048696;28;19940;-91
2022/09/03 10:47:24;;;;;;;;;;;28.10;42.40;;;;;;5047976;28;20370;-91
2022/09/03 10:49:53;;;;;;;;;;;28.00;42.40;;;;;;5047691;28;19909;-92
2022/09/03 10:52:51;;;;;;;;;;;27.90;42.50;;;;;;5045008;28;20148;-92
2022/09/03 10:55:55;;;;;;;;;;;27.80;42.80;;;;;;5028829;28;20080;-91
2022/09/03 10:58:22;;;;;;;;;;;27.70;42.60;;;;;;5002380;28;19920;-91
2022/09/03 11:00:57;;;;;;;;;;;27.60;41.90;;;;;;5001429;28;20265;-91
2022/09/03 11:03:39;;;;;;;;;;;27.60;42.40;;;;;;5017451;28;20356;-91
2022/09/03 11:06:14;;;;;;;;;;;27.40;43.10;;;;;;5065314;28;19998;-91
2022/09/03 11:09:03;;;;;;;;;;;27.20;43.60;;;;;;5049220;28;19944;-91
2022/09/03 11:11:31;;;;;;;;;;;27.20;43.70;;;;;;5057681;28;20298;-92
2022/09/03 11:14:07;;;;;;;;;;;27.20;43.70;;;;;;5050934;28;19927;-91
2022/09/03 11:16:36;;;;;;;;;;;27.20;43.80;;;;;;5048721;28;20095;-91
2022/09/03 11:19:04;;;;;;;;;;;27.20;43.80;;;;;;5048617;28;19904;-91
2022/09/03 11:21:30;;;;;;;;;;;27.20;43.90;;;;;;5048760;28;19936;-91
2022/09/03 11:24:08;;;;;;;;;;;27.20;44.00;;;;;;5044963;28;19950;-92
2022/09/03 11:26:35;;;;;;;;;;;27.20;44.00;;;;;;5048380;28;19911;-91
2022/09/03 11:29:04;;;;;;;;;;;27.20;44.00;;;;;;5046538;28;19912;-91
2022/09/03 11:31:30;;;;;;;;;;;27.20;44.00;;;;;;5047123;28;20119;-91
2022/09/03 11:34:05;;;;;;;;;;;27.20;44.10;;;;;;5048229;28;19912;-92
2022/09/03 11:36:31;;;;;;;;;;;27.20;43.60;;;;;;5047628;28;20280;-92
2022/09/03 11:38:59;;;;;;;;;;;27.30;43.90;;;;;;5048231;28;20258;-91
2022/09/03 11:41:26;;;;;;;;;;;27.30;44.10;;;;;;5047779;28;19935;-91
2022/09/03 11:43:52;;;;;;;;;;;27.30;44.10;;;;;;5049362;28;19919;-92
2022/09/03 11:46:22;;;;;;;;;;;27.20;44.20;;;;;;5048407;28;19904;-91
2022/09/03 11:48:55;;;;;;;;;;;27.20;44.00;;;;;;5047937;28;19969;-91
2022/09/03 11:51:29;;;;;;;;;;;27.30;44.20;;;;;;5046095;28;20137;-91
2022/09/03 11:54:02;;;;;;;;;;;27.30;44.20;;;;;;5047704;28;19969;-91
2022/09/03 11:56:29;;;;;;;;;;;27.30;44.00;;;;;;5050174;28;19936;-91
2022/09/03 11:59:13;;;;;;;;;;;27.30;44.20;;;;;;5050253;28;19959;-90
2022/09/03 12:01:46;;;;;;;;;;;27.30;44.20;;;;;;5048665;28;19916;-92
2022/09/03 12:04:14;;;;;;;;;;;27.30;44.40;;;;;;5065567;28;20267;-91
2022/09/03 12:06:42;;;;;;;;;;;27.20;44.40;;;;;;5046508;28;20254;-92
2022/09/03 12:09:14;;;;;;;;;;;27.20;44.50;;;;;;5049084;28;19904;-92
2022/09/03 12:11:46;;;;;;;;;;;27.10;44.50;;;;;;5049590;28;19923;-91
2022/09/03 12:14:18;;;;;;;;;;;27.10;44.60;;;;;;5051483;28;19904;-91
2022/09/03 12:16:49;;;;;;;;;;;27.10;44.70;;;;;;5051780;28;20042;-91
2022/09/03 12:19:33;;;;;;;;;;;27.10;44.70;;;;;;5051378;28;19909;-91
2022/09/03 12:22:01;;;;;;;;;;;27.10;44.80;;;;;;5052083;28;20688;-91
2022/09/03 12:24:36;;;;;;;;;;;27.00;44.80;;;;;;5067504;28;20051;-91
2022/09/03 12:27:02;;;;;;;;;;;27.00;44.90;;;;;;5065233;28;19912;-91
2022/09/03 12:29:28;;;;;;;;;;;27.00;45.00;;;;;;5047769;28;19958;-91
2022/09/03 12:31:57;;;;;;;;;;;27.00;45.10;;;;;;5047929;28;20023;-91
2022/09/03 12:34:24;;;;;;;;;;;27.00;45.10;;;;;;5047428;28;19904;-91
2022/09/03 12:36:51;;;;;;;;;;;27.00;45.30;;;;;;5048125;28;19904;-91
2022/09/03 12:39:24;;;;;;;;;;;27.00;45.60;;;;;;5047657;28;20011;-91
2022/09/03 12:42:03;;;;;;;;;;;26.90;45.40;;;;;;5047298;28;19909;-91
2022/09/03 12:44:34;;;;;;;;;;;26.90;45.40;;;;;;5049818;28;19904;-91
2022/09/03 12:47:02;;;;;;;;;;;26.90;45.50;;;;;;5049149;28;19999;-91
2022/09/03 12:49:33;;;;;;;;;;;26.80;45.80;;;;;;5052854;28;19905;-91
2022/09/03 12:52:04;;;;;;;;;;;26.80;45.90;;;;;;5050364;28;19912;-92
2022/09/03 12:54:30;;;;;;;;;;;26.80;45.80;;;;;;5052799;28;19904;-92
2022/09/03 12:56:57;;;;;;;;;;;26.70;45.90;;;;;;5052795;28;19907;-92
2022/09/03 12:59:25;;;;;;;;;;;26.70;46.10;;;;;;5051368;28;20113;-92
2022/09/03 13:01:53;;;;;;;;;;;26.70;46.10;;;;;;5051687;28;19959;-91
2022/09/03 13:04:27;;;;;;;;;;;26.60;46.10;;;;;;5050783;28;20363;-92
2022/09/03 13:06:56;;;;;;;;;;;26.60;46.10;;;;;;5049604;28;20404;-91
2022/09/03 13:09:25;;;;;;;;;;;26.60;46.10;;;;;;5067102;28;19993;-92
2022/09/03 13:11:51;;;;;;;;;;;26.60;46.20;;;;;;5049120;28;19908;-92
2022/09/03 13:14:18;;;;;;;;;;;26.60;46.10;;;;;;5047779;28;19904;-92
2022/09/03 13:16:44;;;;;;;;;;;26.60;46.40;;;;;;5046084;28;19923;-92
2022/09/03 13:19:22;;;;;;;;;;;26.60;46.80;;;;;;5047795;28;20024;-91
2022/09/03 13:21:54;;;;;;;;;;;26.60;46.60;;;;;;5047198;28;19954;-91
2022/09/03 13:24:38;;;;;;;;;;;26.60;47.00;;;;;;5048922;28;20037;-92
2022/09/03 13:27:10;;;;;;;;;;;26.60;46.80;;;;;;5048877;28;20007;-92
2022/09/03 13:29:40;;;;;;;;;;;26.50;46.60;;;;;;5047433;28;19908;-92
2022/09/03 13:32:41;;;;;;;;;;;26.50;46.60;;;;;;5047923;28;19989;-92
2022/09/03 13:35:25;;;;;;;;;;;26.50;46.60;;;;;;5005191;28;19913;-92
2022/09/03 13:37:56;;;;;;;;;;;26.50;46.90;;;;;;5046404;28;19946;-92
2022/09/03 13:40:22;;;;;;;;;;;26.50;46.70;;;;;;5050955;28;19904;-92
2022/09/03 13:42:57;;;;;;;;;;;26.50;47.50;;;;;;5048358;28;19974;-93
2022/09/03 13:45:40;;;;;;;;;;;26.50;47.30;;;;;;5047272;28;19904;-92
2022/09/03 13:51:12;;;;;;;;;;;26.60;47.10;;;;;;5065226;28;19969;-92
2022/09/03 13:53:40;;;;;;;;;;;26.60;47.30;;;;;;5044313;28;19904;-91
2022/09/03 13:56:19;;;;;;;;;;;26.60;47.20;;;;;;5048196;28;20026;-91
2022/09/03 13:59:05;;;;;;;;;;;26.60;47.20;;;;;;5049054;28;19904;-91
2022/09/03 14:01:45;;;;;;;;;;;26.60;47.10;;;;;;5047906;28;20163;-91
2022/09/03 14:04:23;;;;;;;;;;;26.60;47.10;;;;;;5066995;28;19909;-91
2022/09/03 14:06:54;;;;;;;;;;;26.60;47.10;;;;;;5049198;28;19935;-92
2022/09/03 14:09:22;;;;;;;;;;;26.60;47.10;;;;;;5047520;28;19904;-91
2022/09/03 14:12:00;;;;;;;;;;;26.60;47.20;;;;;;5066927;28;19970;-92
2022/09/03 14:14:29;;;;;;;;;;;26.60;47.30;;;;;;5048643;28;20194;-91
2022/09/03 14:16:57;;;;;;;;;;;26.60;47.50;;;;;;5051145;28;20318;-91
2022/09/03 14:19:26;;;;;;;;;;;26.60;47.60;;;;;;5067260;28;19908;-90
2022/09/03 14:21:58;;;;;;;;;;;26.50;47.50;;;;;;5065613;28;19909;-92
2022/09/03 14:24:39;;;;;;;;;;;26.50;47.40;;;;;;5064182;28;19989;-92